MacCan, Canada
Current Conditions -  °F | °C
As of 2:00 AM on Saturday 25 Oct 2014 (Local Time) from CYQM Reporting Station
Drizzle Drizzle  
Wind Chill: 40°   Ceiling: 400
Heat Index: 46°   Visibility: 1.2mi
Dew Point: 45°   Wind: 16mph
Humidity: 93%   Direction: 340°NNW
Pressure: 29.48"   Gusts: 22mph
Location:  45.72°N, 64.25°W
Report Text: CYQM 250500Z 34014G19KT 1 1/4SM -DZ BR OVC004 08/07 A2948 RMK SF8 SLP986
Loading
Personal Weather Stations






























Interactive Weather Map
Tropical Storm Tracking
New forecast layout! Learn more

10-Day Weather Forecast

Advertisements
Track Severe Weather on mobile